createdAt,value
2023-03-05T00:01:18.508Z,100.00
2023-03-05T00:03:49.512Z,100.00
2023-03-05T00:06:28.517Z,100.00
2023-03-05T00:08:58.239Z,100.00
2023-03-05T00:11:29.719Z,100.00
2023-03-05T00:13:56.986Z,100.00
2023-03-05T00:16:26.658Z,100.00
2023-03-05T00:18:54.550Z,100.00
2023-03-05T00:21:34.369Z,100.00
2023-03-05T00:24:02.401Z,100.00
2023-03-05T00:26:29.974Z,100.00
2023-03-05T00:28:58.293Z,100.00
2023-03-05T00:31:30.377Z,100.00
2023-03-05T00:34:00.216Z,100.00
2023-03-05T00:36:27.357Z,100.00
2023-03-05T00:38:54.363Z,100.00
2023-03-05T00:41:24.479Z,100.00
2023-03-05T00:43:51.089Z,100.00
2023-03-05T00:46:18.379Z,100.00
2023-03-05T00:48:47.635Z,100.00
2023-03-05T00:51:14.939Z,100.00
2023-03-05T00:53:41.470Z,100.00
2023-03-05T00:56:10.723Z,100.00
2023-03-05T00:58:37.781Z,100.00
2023-03-05T01:01:05.607Z,100.00
2023-03-05T01:03:33.405Z,100.00
2023-03-05T01:06:01.076Z,100.00
2023-03-05T01:08:28.251Z,100.00
2023-03-05T01:10:58.146Z,100.00
2023-03-05T01:13:24.690Z,100.00
2023-03-05T01:15:51.620Z,100.00
2023-03-05T01:18:19.615Z,100.00
2023-03-05T01:20:56.036Z,100.00
2023-03-05T01:23:22.754Z,100.00
2023-03-05T01:26:00.031Z,100.00
2023-03-05T01:28:27.593Z,100.00
2023-03-05T01:30:54.150Z,100.00
2023-03-05T01:33:20.644Z,100.00
2023-03-05T01:35:49.180Z,100.00
2023-03-05T01:38:16.977Z,100.00
2023-03-05T01:40:47.191Z,100.00
2023-03-05T01:43:13.927Z,100.00
2023-03-05T01:46:29.768Z,100.00
2023-03-05T01:49:12.488Z,100.00
2023-03-05T01:51:50.134Z,100.00
2023-03-05T01:54:26.559Z,100.00
2023-03-05T01:56:55.890Z,100.00
2023-03-05T01:59:25.447Z,100.00
2023-03-05T02:01:55.776Z,100.00
2023-03-05T02:04:29.937Z,100.00
2023-03-05T02:06:59.884Z,100.00
2023-03-05T02:09:28.692Z,100.00
2023-03-05T02:12:02.578Z,100.00
2023-03-05T02:14:29.216Z,100.00
2023-03-05T02:16:55.732Z,100.00
2023-03-05T02:19:22.238Z,100.00
2023-03-05T02:21:49.960Z,100.00
2023-03-05T02:24:31.856Z,100.00
2023-03-05T02:26:58.641Z,100.00
2023-03-05T02:29:25.081Z,100.00
2023-03-05T02:31:54.927Z,100.00
2023-03-05T02:34:27.583Z,100.00
2023-03-05T02:36:55.575Z,100.00
2023-03-05T02:39:22.320Z,100.00
2023-03-05T02:41:48.817Z,100.00
2023-03-05T02:44:15.443Z,100.00
2023-03-05T02:46:42.035Z,100.00
2023-03-05T02:49:08.508Z,100.00
2023-03-05T02:51:35.084Z,100.00
2023-03-05T02:54:01.549Z,100.00
2023-03-05T02:56:28.007Z,100.00
2023-03-05T02:58:54.523Z,100.00
2023-03-05T03:01:21.093Z,100.00
2023-03-05T03:03:47.745Z,100.00
2023-03-05T03:06:17.057Z,100.00
2023-03-05T03:08:43.573Z,100.00
2023-03-05T03:11:14.567Z,100.00
2023-03-05T03:13:41.707Z,100.00
2023-03-05T03:16:12.034Z,100.00
2023-03-05T03:18:38.686Z,100.00
2023-03-05T03:21:05.680Z,100.00
2023-03-05T03:23:32.970Z,100.00
2023-03-05T03:25:59.786Z,100.00
2023-03-05T03:28:26.428Z,100.00
2023-03-05T03:30:52.933Z,100.00
2023-03-05T03:33:19.555Z,100.00
2023-03-05T03:35:46.570Z,100.00
2023-03-05T03:38:13.914Z,100.00
2023-03-05T03:40:43.539Z,100.00
2023-03-05T03:43:10.061Z,100.00
2023-03-05T03:45:40.746Z,100.00
2023-03-05T03:48:07.266Z,100.00
2023-03-05T03:50:33.755Z,100.00
2023-03-05T03:53:00.388Z,100.00
2023-03-05T03:55:26.901Z,100.00
2023-03-05T03:57:53.986Z,100.00
2023-03-05T04:00:24.023Z,100.00
2023-03-05T04:02:50.537Z,100.00
2023-03-05T04:05:17.393Z,100.00
2023-03-05T04:07:45.300Z,100.00
2023-03-05T04:10:12.646Z,100.00
2023-03-05T04:12:40.544Z,100.00
2023-03-05T04:15:08.014Z,100.00
2023-03-05T04:17:34.520Z,100.00
2023-03-05T04:20:01.413Z,100.00
2023-03-05T04:22:28.165Z,100.00
2023-03-05T04:24:54.856Z,100.00
2023-03-05T04:27:21.357Z,100.00
2023-03-05T04:29:47.849Z,100.00
2023-03-05T04:32:14.602Z,100.00
2023-03-05T04:34:41.184Z,100.00
2023-03-05T04:37:07.667Z,100.00
2023-03-05T04:39:34.241Z,100.00
2023-03-05T04:42:00.736Z,100.00
2023-03-05T04:44:27.286Z,100.00
2023-03-05T04:46:53.740Z,100.00
2023-03-05T04:49:20.320Z,100.00
2023-03-05T04:51:46.946Z,100.00
2023-03-05T04:54:13.460Z,100.00
2023-03-05T04:56:39.914Z,100.00
2023-03-05T04:59:06.422Z,100.00
2023-03-05T05:01:35.149Z,100.00
2023-03-05T05:04:02.056Z,100.00
2023-03-05T05:06:28.561Z,100.00
2023-03-05T05:08:55.245Z,100.00
2023-03-05T05:11:21.739Z,100.00
2023-03-05T05:13:48.260Z,100.00
2023-03-05T05:16:15.579Z,100.00
2023-03-05T05:18:42.378Z,100.00
2023-03-05T05:21:11.141Z,100.00
2023-03-05T05:23:37.700Z,100.00
2023-03-05T05:26:06.953Z,100.00
2023-03-05T05:28:34.460Z,100.00
2023-03-05T05:31:01.093Z,100.00
2023-03-05T05:33:27.660Z,100.00
2023-03-05T05:35:54.210Z,100.00
2023-03-05T05:38:21.237Z,100.00
2023-03-05T05:40:47.748Z,100.00
2023-03-05T05:43:14.311Z,100.00
2023-03-05T05:45:40.995Z,100.00
2023-03-05T05:48:07.679Z,100.00
2023-03-05T05:50:34.274Z,100.00
2023-03-05T05:53:00.723Z,100.00
2023-03-05T05:55:27.247Z,100.00
2023-03-05T05:57:53.712Z,100.00
2023-03-05T06:00:20.608Z,100.00
2023-03-05T06:02:47.206Z,100.00
2023-03-05T06:05:15.059Z,100.00
2023-03-05T06:07:41.801Z,100.00
2023-03-05T06:10:09.934Z,100.00
2023-03-05T06:12:36.434Z,100.00
2023-03-05T06:15:02.953Z,100.00
2023-03-05T06:17:31.025Z,100.00
2023-03-05T06:19:58.811Z,100.00
2023-03-05T06:22:25.546Z,100.00
2023-03-05T06:24:52.103Z,100.00
2023-03-05T06:27:18.695Z,100.00
2023-03-05T06:29:45.140Z,100.00
2023-03-05T06:32:14.951Z,100.00
2023-03-05T06:34:41.415Z,100.00
2023-03-05T06:37:07.900Z,100.00
2023-03-05T06:39:34.478Z,100.00
2023-03-05T06:42:00.938Z,100.00
2023-03-05T06:44:27.476Z,100.00
2023-03-05T06:46:54.220Z,100.00
2023-03-05T06:49:20.864Z,100.00
2023-03-05T06:51:47.557Z,100.00
2023-03-05T06:54:16.383Z,100.00
2023-03-05T06:56:45.486Z,100.00
2023-03-05T06:59:13.797Z,100.00
2023-03-05T07:01:42.397Z,100.00
2023-03-05T07:04:09.648Z,100.00
2023-03-05T07:06:42.161Z,100.00
2023-03-05T07:09:12.942Z,100.00
2023-03-05T07:11:39.425Z,100.00
2023-03-05T07:14:05.902Z,100.00
2023-03-05T07:16:33.916Z,100.00
2023-03-05T07:19:04.102Z,100.00
2023-03-05T07:21:33.602Z,100.00
2023-03-05T07:24:01.941Z,100.00
2023-03-05T07:26:28.722Z,100.00
2023-03-05T07:28:55.588Z,100.00
2023-03-05T07:31:27.287Z,100.00
2023-03-05T07:33:54.113Z,100.00
2023-03-05T07:36:21.317Z,100.00
2023-03-05T07:38:47.847Z,100.00
2023-03-05T07:41:20.131Z,100.00
2023-03-05T07:43:48.954Z,100.00
2023-03-05T07:46:18.934Z,100.00
2023-03-05T07:48:48.248Z,100.00
2023-03-05T07:51:18.347Z,100.00
2023-03-05T07:53:46.607Z,100.00
2023-03-05T07:56:13.621Z,100.00
2023-03-05T07:58:40.158Z,100.00
2023-03-05T08:01:13.923Z,100.00
2023-03-05T08:03:41.499Z,100.00
2023-03-05T08:06:09.082Z,100.00
2023-03-05T08:08:36.270Z,100.00
2023-03-05T08:11:04.648Z,100.00
2023-03-05T08:13:31.348Z,100.00
2023-03-05T08:15:58.108Z,100.00
2023-03-05T08:18:24.976Z,100.00
2023-03-05T08:20:51.412Z,100.00
2023-03-05T08:23:17.906Z,100.00
2023-03-05T08:25:44.514Z,100.00
2023-03-05T08:28:11.054Z,100.00
2023-03-05T08:30:43.026Z,100.00
2023-03-05T08:33:09.495Z,100.00
2023-03-05T08:35:36.064Z,100.00
2023-03-05T08:38:02.552Z,100.00
2023-03-05T08:40:29.057Z,100.00
2023-03-05T08:42:55.624Z,100.00
2023-03-05T08:45:22.161Z,100.00
2023-03-05T08:47:49.810Z,100.00
2023-03-05T08:50:17.864Z,100.00
2023-03-05T08:52:44.649Z,100.00
2023-03-05T08:55:12.711Z,100.00
2023-03-05T08:57:39.174Z,100.00
2023-03-05T09:00:07.341Z,100.00
2023-03-05T09:02:37.203Z,100.00
2023-03-05T09:05:04.350Z,100.00
2023-03-05T09:07:30.775Z,100.00
2023-03-05T09:09:57.270Z,100.00
2023-03-05T09:12:23.753Z,100.00
2023-03-05T09:14:50.291Z,100.00
2023-03-05T09:17:16.742Z,100.00
2023-03-05T09:19:43.880Z,100.00
2023-03-05T09:22:10.361Z,100.00
2023-03-05T09:24:36.889Z,100.00
2023-03-05T09:27:03.444Z,100.00
2023-03-05T09:29:31.332Z,100.00
2023-03-05T09:31:58.059Z,100.00
2023-03-05T09:34:24.753Z,100.00
2023-03-05T09:36:51.278Z,100.00
2023-03-05T09:39:17.802Z,100.00
2023-03-05T09:42:02.217Z,100.00
2023-03-05T09:45:02.210Z,100.00
2023-03-05T09:48:01.466Z,100.00
2023-03-05T09:50:42.077Z,100.00
2023-03-05T09:53:20.551Z,100.00
2023-03-05T09:55:53.768Z,100.00
2023-03-05T09:58:36.923Z,100.00
2023-03-05T10:01:15.495Z,100.00
2023-03-05T10:04:12.488Z,100.00
2023-03-05T10:06:57.841Z,100.00
2023-03-05T10:09:49.262Z,100.00
2023-03-05T10:12:39.029Z,100.00
2023-03-05T10:15:15.744Z,100.00
2023-03-05T10:18:00.889Z,100.00
2023-03-05T10:20:46.050Z,100.00
2023-03-05T10:23:20.958Z,100.00
2023-03-05T10:26:06.185Z,100.00
2023-03-05T10:28:51.399Z,100.00
2023-03-05T10:31:38.168Z,100.00
2023-03-05T10:34:33.777Z,100.00
2023-03-05T10:37:14.830Z,100.00
2023-03-05T10:39:44.433Z,100.00
2023-03-05T10:42:16.243Z,100.00
2023-03-05T10:45:14.030Z,100.00
2023-03-05T10:47:59.429Z,100.00
2023-03-05T10:50:36.832Z,100.00
2023-03-05T10:53:19.746Z,100.00
2023-03-05T10:55:46.239Z,100.00
2023-03-05T10:58:15.111Z,100.00
2023-03-05T11:01:17.651Z,100.00
2023-03-05T11:04:07.712Z,100.00
2023-03-05T11:06:42.933Z,100.00
2023-03-05T11:09:18.057Z,100.00
2023-03-05T11:12:02.478Z,100.00
2023-03-05T11:14:33.126Z,100.00
2023-03-05T11:17:01.812Z,100.00
2023-03-05T11:19:33.287Z,100.00
2023-03-05T11:22:21.030Z,100.00
2023-03-05T11:25:06.026Z,100.00
2023-03-05T11:27:37.458Z,100.00
2023-03-05T11:30:18.194Z,100.00
2023-03-05T11:32:44.631Z,100.00
2023-03-05T11:35:32.996Z,100.00
2023-03-05T11:38:04.826Z,100.00
2023-03-05T11:40:36.052Z,100.00
2023-03-05T11:43:04.701Z,100.00
2023-03-05T11:45:33.083Z,100.00
2023-03-05T11:48:15.741Z,100.00
2023-03-05T11:50:45.108Z,100.00
2023-03-05T11:53:25.665Z,100.00
2023-03-05T11:56:00.391Z,99.80
2023-03-05T11:58:39.251Z,100.00
2023-03-05T12:01:16.597Z,99.22
2023-03-05T12:03:44.007Z,98.08
2023-03-05T12:06:16.993Z,97.84
2023-03-05T12:08:49.077Z,97.86
2023-03-05T12:11:26.951Z,92.06
2023-03-05T12:14:20.783Z,94.64
2023-03-05T12:17:07.521Z,91.35
2023-03-05T12:19:47.210Z,92.96
2023-03-05T12:22:22.059Z,93.63
2023-03-05T12:24:49.268Z,95.58
2023-03-05T12:27:32.079Z,96.38
2023-03-05T12:30:01.784Z,95.65
2023-03-05T12:32:35.169Z,94.94
2023-03-05T12:35:22.480Z,93.96
2023-03-05T12:37:51.927Z,93.82
2023-03-05T12:40:34.548Z,93.31
2023-03-05T12:43:06.732Z,92.37
2023-03-05T12:45:40.949Z,93.26
2023-03-05T12:48:12.462Z,93.36
2023-03-05T12:50:38.945Z,91.01
2023-03-05T12:53:18.541Z,89.69
2023-03-05T12:55:47.821Z,89.86
2023-03-05T12:58:45.140Z,90.59
2023-03-05T13:01:12.774Z,90.70
2023-03-05T13:03:45.467Z,91.06
2023-03-05T13:06:27.720Z,90.33
2023-03-05T13:09:04.518Z,91.06
2023-03-05T13:11:34.447Z,92.30
2023-03-05T13:14:02.621Z,93.67
2023-03-05T13:16:37.746Z,93.77
2023-03-05T13:19:14.944Z,93.75
2023-03-05T13:21:41.608Z,93.63
2023-03-05T13:24:17.465Z,93.11
2023-03-05T13:26:46.857Z,93.15
2023-03-05T13:29:18.945Z,92.92
2023-03-05T13:31:59.147Z,92.23
2023-03-05T13:34:37.412Z,92.68
2023-03-05T13:37:22.417Z,93.51
2023-03-05T13:40:02.079Z,92.20
2023-03-05T13:42:34.718Z,91.15
2023-03-05T13:45:04.982Z,89.61
2023-03-05T13:47:34.616Z,90.23
2023-03-05T13:50:07.358Z,90.65
2023-03-05T13:52:36.751Z,90.32
2023-03-05T13:55:12.061Z,90.49
2023-03-05T13:57:40.329Z,90.03
2023-03-05T14:00:25.993Z,90.19
2023-03-05T14:02:58.606Z,90.26
2023-03-05T14:05:26.674Z,87.98
2023-03-05T14:07:53.730Z,88.65
2023-03-05T14:10:43.102Z,88.46
2023-03-05T14:13:18.268Z,87.37
2023-03-05T14:16:06.376Z,87.60
2023-03-05T14:18:33.493Z,86.21
2023-03-05T14:21:09.060Z,86.71
2023-03-05T14:23:40.570Z,85.66
2023-03-05T14:26:29.387Z,84.68
2023-03-05T14:29:15.424Z,83.74
2023-03-05T14:31:51.143Z,83.83
2023-03-05T14:34:24.364Z,84.65
2023-03-05T14:36:55.698Z,82.69
2023-03-05T14:39:31.042Z,82.75
2023-03-05T14:42:34.148Z,81.47
2023-03-05T14:45:10.322Z,82.26
2023-03-05T14:47:36.830Z,81.55
2023-03-05T14:50:04.846Z,79.82
2023-03-05T14:52:31.682Z,80.46
2023-03-05T14:54:58.298Z,80.99
2023-03-05T14:57:30.981Z,81.46
2023-03-05T14:59:57.452Z,80.61
2023-03-05T15:02:26.160Z,81.34
2023-03-05T15:04:52.934Z,81.78
2023-03-05T15:07:25.292Z,81.51
2023-03-05T15:09:51.792Z,82.34
2023-03-05T15:12:18.848Z,82.88
2023-03-05T15:14:45.392Z,82.71
2023-03-05T15:17:39.671Z,82.26
2023-03-05T15:20:09.937Z,82.66
2023-03-05T15:22:37.587Z,82.76
2023-03-05T15:25:04.326Z,82.80
2023-03-05T15:27:30.934Z,82.55
2023-03-05T15:29:58.956Z,81.83
2023-03-05T15:32:30.894Z,82.32
2023-03-05T15:34:58.104Z,83.16
2023-03-05T15:37:26.001Z,83.12
2023-03-05T15:39:55.976Z,83.30
2023-03-05T15:42:22.500Z,83.30
2023-03-05T15:44:49.089Z,83.61
2023-03-05T15:47:15.645Z,83.33
2023-03-05T15:49:42.115Z,83.33
2023-03-05T15:52:08.875Z,83.55
2023-03-05T15:54:36.653Z,83.85
2023-03-05T15:57:07.931Z,84.26
2023-03-05T15:59:34.440Z,83.59
2023-03-05T16:02:01.720Z,83.25
2023-03-05T16:04:31.688Z,83.38
2023-03-05T16:07:04.767Z,83.93
2023-03-05T16:09:37.223Z,83.00
2023-03-05T16:12:18.735Z,83.18
2023-03-05T16:14:46.400Z,83.28
2023-03-05T16:17:13.766Z,82.53
2023-03-05T16:19:44.077Z,82.87
2023-03-05T16:22:10.645Z,83.29
2023-03-05T16:24:37.152Z,83.65
2023-03-05T16:27:04.954Z,82.79
2023-03-05T16:29:35.157Z,83.40
2023-03-05T16:32:04.089Z,82.78
2023-03-05T16:34:34.916Z,83.48
2023-03-05T16:37:04.365Z,83.57
2023-03-05T16:39:33.572Z,83.51
2023-03-05T16:42:00.134Z,84.76
2023-03-05T16:44:26.767Z,84.81
2023-03-05T16:46:53.908Z,84.78
2023-03-05T16:49:21.214Z,84.81
2023-03-05T16:51:47.856Z,85.41
2023-03-05T16:54:16.921Z,85.59
2023-03-05T16:56:43.514Z,86.13
2023-03-05T16:59:10.034Z,86.56
2023-03-05T17:01:36.565Z,86.09
2023-03-05T17:04:03.667Z,86.60
2023-03-05T17:06:31.816Z,86.46
2023-03-05T17:09:01.965Z,86.68
2023-03-05T17:11:28.862Z,87.12
2023-03-05T17:13:55.601Z,87.45
2023-03-05T17:16:22.848Z,87.55
2023-03-05T17:18:49.454Z,87.37
2023-03-05T17:21:19.012Z,87.33
2023-03-05T17:23:45.501Z,87.79
2023-03-05T17:26:15.347Z,87.65
2023-03-05T17:28:42.196Z,87.77
2023-03-05T17:31:08.770Z,87.58
2023-03-05T17:33:35.718Z,87.76
2023-03-05T17:36:03.882Z,87.74
2023-03-05T17:38:31.162Z,87.85
2023-03-05T17:41:00.845Z,87.98
2023-03-05T17:43:27.388Z,87.90
2023-03-05T17:45:59.375Z,88.25
2023-03-05T17:48:26.448Z,87.79
2023-03-05T17:50:53.498Z,87.27
2023-03-05T17:53:20.807Z,87.58
2023-03-05T17:55:47.387Z,87.46
2023-03-05T17:58:13.870Z,87.66
2023-03-05T18:00:40.483Z,87.94
2023-03-05T18:03:06.926Z,88.62
2023-03-05T18:05:33.394Z,88.32
2023-03-05T18:08:00.855Z,88.23
2023-03-05T18:10:27.639Z,87.59
2023-03-05T18:12:54.706Z,87.90
2023-03-05T18:15:23.804Z,88.11
2023-03-05T18:17:55.826Z,88.76
2023-03-05T18:20:34.741Z,88.89
2023-03-05T18:23:02.413Z,88.83
2023-03-05T18:25:36.591Z,88.53
2023-03-05T18:28:08.865Z,88.53
2023-03-05T18:30:35.820Z,88.49
2023-03-05T18:33:02.844Z,87.98
2023-03-05T18:35:29.763Z,88.83
2023-03-05T18:37:57.295Z,88.23
2023-03-05T18:40:27.156Z,88.74
2023-03-05T18:42:53.658Z,88.59
2023-03-05T18:45:22.065Z,88.63
2023-03-05T18:47:49.116Z,88.73
2023-03-05T18:50:18.482Z,89.50
2023-03-05T18:52:45.664Z,89.38
2023-03-05T18:55:20.548Z,89.76
2023-03-05T18:57:47.055Z,90.27
2023-03-05T19:00:17.088Z,90.40
2023-03-05T19:02:43.649Z,90.86
2023-03-05T19:05:12.024Z,90.13
2023-03-05T19:07:38.618Z,91.21
2023-03-05T19:10:07.495Z,91.70
2023-03-05T19:12:45.464Z,92.65
2023-03-05T19:15:13.424Z,93.28
2023-03-05T19:17:40.463Z,93.67
2023-03-05T19:20:08.174Z,93.83
2023-03-05T19:22:34.994Z,94.53
2023-03-05T19:25:01.761Z,94.67
2023-03-05T19:27:28.826Z,94.62
2023-03-05T19:29:55.496Z,95.04
2023-03-05T19:32:23.560Z,94.98
2023-03-05T19:34:50.666Z,95.30
2023-03-05T19:37:18.173Z,94.91
2023-03-05T19:39:44.735Z,94.93
2023-03-05T19:42:11.446Z,95.09
2023-03-05T19:44:39.844Z,94.56
2023-03-05T19:47:06.515Z,95.05
2023-03-05T19:49:33.014Z,94.76
2023-03-05T19:51:59.566Z,94.43
2023-03-05T19:54:26.308Z,94.58
2023-03-05T19:56:54.905Z,94.87
2023-03-05T19:59:22.351Z,94.63
2023-03-05T20:01:49.585Z,94.77
2023-03-05T20:04:19.548Z,94.76
2023-03-05T20:06:46.860Z,94.67
2023-03-05T20:09:14.453Z,94.88
2023-03-05T20:11:41.062Z,95.05
2023-03-05T20:14:07.931Z,95.32
2023-03-05T20:16:36.570Z,95.58
2023-03-05T20:19:06.365Z,95.43
2023-03-05T20:21:36.134Z,95.47
2023-03-05T20:24:09.510Z,95.36
2023-03-05T20:26:37.904Z,95.33
2023-03-05T20:29:05.323Z,95.62
2023-03-05T20:31:37.003Z,95.19
2023-03-05T20:34:07.996Z,95.44
2023-03-05T20:36:35.270Z,95.39
2023-03-05T20:39:03.440Z,95.60
2023-03-05T20:41:30.814Z,95.02
2023-03-05T20:43:57.842Z,94.94
2023-03-05T20:46:33.371Z,95.34
2023-03-05T20:49:01.581Z,95.42
2023-03-05T20:51:38.198Z,95.26
2023-03-05T20:54:11.355Z,95.43
2023-03-05T20:56:38.166Z,95.04
2023-03-05T20:59:08.514Z,95.33
2023-03-05T21:01:37.513Z,95.28
2023-03-05T21:04:06.918Z,95.19
2023-03-05T21:06:34.337Z,95.07
2023-03-05T21:09:01.456Z,95.58
2023-03-05T21:11:28.399Z,95.21
2023-03-05T21:13:54.878Z,95.01
2023-03-05T21:16:24.571Z,95.37
2023-03-05T21:18:52.093Z,95.40
2023-03-05T21:21:19.314Z,95.44
2023-03-05T21:23:47.106Z,95.54
2023-03-05T21:26:13.890Z,95.50
2023-03-05T21:28:40.927Z,95.87
2023-03-05T21:31:10.159Z,95.78
2023-03-05T21:33:37.311Z,96.16
2023-03-05T21:36:04.549Z,95.86
2023-03-05T21:38:33.906Z,96.01
2023-03-05T21:41:01.121Z,96.35
2023-03-05T21:43:30.359Z,96.39
2023-03-05T21:45:58.553Z,96.75
2023-03-05T21:48:25.398Z,97.05
2023-03-05T21:50:52.643Z,97.07
2023-03-05T21:53:19.914Z,97.76
2023-03-05T21:55:59.876Z,97.95
2023-03-05T21:58:32.567Z,98.31
2023-03-05T22:00:59.606Z,98.28
2023-03-05T22:03:27.531Z,98.33
2023-03-05T22:05:54.769Z,98.74
2023-03-05T22:08:24.299Z,99.27
2023-03-05T22:10:50.882Z,99.75
2023-03-05T22:13:19.871Z,99.76
2023-03-05T22:15:48.400Z,99.97
2023-03-05T22:18:23.611Z,100.00
2023-03-05T22:20:51.272Z,100.00
2023-03-05T22:23:18.677Z,100.00
2023-03-05T22:25:45.326Z,100.00
2023-03-05T22:28:12.939Z,100.00
2023-03-05T22:30:46.493Z,100.00
2023-03-05T22:33:13.418Z,100.00
2023-03-05T22:35:41.020Z,100.00
2023-03-05T22:38:15.067Z,100.00
2023-03-05T22:40:44.107Z,100.00
2023-03-05T22:43:11.506Z,100.00
2023-03-05T22:45:41.675Z,100.00
2023-03-05T22:48:09.967Z,100.00
2023-03-05T22:50:40.952Z,100.00
2023-03-05T22:53:08.175Z,100.00
2023-03-05T22:55:37.819Z,100.00
2023-03-05T22:58:04.327Z,100.00
2023-03-05T23:00:30.803Z,100.00
2023-03-05T23:03:00.295Z,100.00
2023-03-05T23:05:26.962Z,99.97
2023-03-05T23:07:53.442Z,100.00
2023-03-05T23:10:26.929Z,100.00
2023-03-05T23:12:55.914Z,100.00
2023-03-05T23:15:32.020Z,100.00
2023-03-05T23:17:59.200Z,100.00
2023-03-05T23:20:28.383Z,100.00
2023-03-05T23:22:59.296Z,100.00
2023-03-05T23:25:29.245Z,100.00
2023-03-05T23:27:58.106Z,100.00
2023-03-05T23:30:29.944Z,100.00
2023-03-05T23:33:16.973Z,100.00
2023-03-05T23:36:06.046Z,100.00
2023-03-05T23:38:36.622Z,100.00
2023-03-05T23:41:06.816Z,100.00
2023-03-05T23:43:33.374Z,100.00
2023-03-05T23:46:01.478Z,100.00
2023-03-05T23:48:29.509Z,100.00
2023-03-05T23:50:55.978Z,99.84
2023-03-05T23:53:28.092Z,99.58
2023-03-05T23:55:59.893Z,99.94
2023-03-05T23:58:26.479Z,99.92
